Copper Queen, Arizona
Current Conditions -  °F | °C
As of 7:56 PM on Wednesday 22 Oct 2014 (Local Time) from KDUG Reporting Station
Clear Clear  
Wind Chill: 61°   Ceiling: Unl
Heat Index: 61°   Visibility: 10mi
Dew Point: 46°   Wind: 9mph
Humidity: 58%   Direction: 360°N
Pressure: 30.11"   Gusts: NA
Location:  31.4799°N, 109.96°W
Report Text: KDUG 230256Z AUTO 36008KT 10SM CLR 16/08 A3011 RMK AO2 SLP149 T01610078 53013
Loading
Personal Weather Stations






























Interactive Weather Map
Tropical Storm Tracking
New forecast layout! Learn more

10-Day Weather Forecast

Advertisements
Track Severe Weather on mobile